createdAt,value
2018-12-01T00:02:14.710Z,25.43
2018-12-01T00:04:49.190Z,23.35
2018-12-01T00:07:23.816Z,23.15
2018-12-01T00:09:58.276Z,25.15
2018-12-01T00:12:32.834Z,22.80
2018-12-01T00:15:09.457Z,26.55
2018-12-01T00:17:44.107Z,25.35
2018-12-01T00:20:24.294Z,27.15
2018-12-01T00:22:58.977Z,36.93
2018-12-01T00:25:33.622Z,28.17
2018-12-01T00:28:08.031Z,35.30
2018-12-01T00:30:42.452Z,42.60
2018-12-01T00:33:16.798Z,60.58
2018-12-01T00:35:51.233Z,36.40
2018-12-01T00:38:25.617Z,23.70
2018-12-01T00:41:00.130Z,24.67
2018-12-01T00:43:34.426Z,27.62
2018-12-01T00:46:08.864Z,23.00
2018-12-01T00:48:43.510Z,22.13
2018-12-01T00:51:17.931Z,24.40
2018-12-01T00:53:52.391Z,22.37
2018-12-01T00:56:26.731Z,23.80
2018-12-01T00:59:01.070Z,24.12
2018-12-01T01:01:35.421Z,22.95
2018-12-01T01:04:09.698Z,26.57
2018-12-01T01:06:44.162Z,27.80
2018-12-01T01:09:18.473Z,28.57
2018-12-01T01:11:52.988Z,29.52
2018-12-01T01:14:27.370Z,36.00
2018-12-01T01:17:01.829Z,22.20
2018-12-01T01:19:36.194Z,28.05
2018-12-01T01:22:10.587Z,27.27
2018-12-01T01:24:45.092Z,28.25
2018-12-01T01:27:19.355Z,26.95
2018-12-01T01:29:53.802Z,34.18
2018-12-01T01:32:28.229Z,29.70
2018-12-01T01:35:02.731Z,39.27
2018-12-01T01:37:37.170Z,72.65
2018-12-01T01:40:12.449Z,89.07
2018-12-01T01:42:46.938Z,48.65
2018-12-01T01:45:21.238Z,50.25
2018-12-01T01:47:55.562Z,49.63
2018-12-01T01:50:30.169Z,32.80
2018-12-01T01:53:04.460Z,36.38
2018-12-01T01:55:38.931Z,34.85
2018-12-01T01:58:13.333Z,31.75
2018-12-01T02:00:47.836Z,26.52
2018-12-01T02:03:22.479Z,29.85
2018-12-01T02:05:56.888Z,27.32
2018-12-01T02:08:31.373Z,28.30
2018-12-01T02:11:06.099Z,27.05
2018-12-01T02:13:40.445Z,25.52
2018-12-01T02:16:15.293Z,27.37
2018-12-01T02:18:49.734Z,29.95
2018-12-01T02:21:25.830Z,27.02
2018-12-01T02:24:00.330Z,25.88
2018-12-01T02:26:34.622Z,24.85
2018-12-01T02:29:08.959Z,23.15
2018-12-01T02:31:43.470Z,37.58
2018-12-01T02:34:17.905Z,26.30
2018-12-01T02:36:52.337Z,29.80
2018-12-01T02:39:26.896Z,26.45
2018-12-01T02:42:01.353Z,37.78
2018-12-01T02:45:00.138Z,51.55
2018-12-01T02:47:34.700Z,55.25
2018-12-01T02:50:13.537Z,56.70
2018-12-01T02:52:47.969Z,29.12
2018-12-01T02:55:22.500Z,20.30
2018-12-01T02:57:57.024Z,25.23
2018-12-01T03:00:31.528Z,27.35
2018-12-01T03:03:06.127Z,24.52
2018-12-01T03:05:40.655Z,25.95
2018-12-01T03:08:15.161Z,28.57
2018-12-01T03:10:49.661Z,28.40
2018-12-01T03:13:24.037Z,24.18
2018-12-01T03:15:58.649Z,20.32
2018-12-01T03:18:33.187Z,17.15
2018-12-01T03:21:07.687Z,19.12
2018-12-01T03:23:42.112Z,22.52
2018-12-01T03:26:16.606Z,16.10
2018-12-01T03:28:51.067Z,19.40
2018-12-01T03:31:25.594Z,19.90
2018-12-01T03:33:59.907Z,16.80
2018-12-01T03:36:34.524Z,19.32
2018-12-01T03:39:09.571Z,20.10
2018-12-01T03:41:43.899Z,18.80
2018-12-01T03:44:18.494Z,42.03
2018-12-01T03:46:53.046Z,66.70
2018-12-01T03:49:27.613Z,41.85
2018-12-01T03:52:02.328Z,34.55
2018-12-01T03:54:36.716Z,22.00
2018-12-01T03:57:11.170Z,20.72
2018-12-01T03:59:45.635Z,22.67
2018-12-01T04:02:19.884Z,21.62
2018-12-01T04:04:54.271Z,22.15
2018-12-01T04:07:28.806Z,21.23
2018-12-01T04:10:03.198Z,27.95
2018-12-01T04:12:37.583Z,35.75
2018-12-01T04:15:11.941Z,31.70
2018-12-01T04:17:46.245Z,25.30
2018-12-01T04:20:20.724Z,26.90
2018-12-01T04:22:55.411Z,22.77
2018-12-01T04:25:29.962Z,23.27
2018-12-01T04:28:04.610Z,19.52
2018-12-01T04:30:39.432Z,22.62
2018-12-01T04:33:13.950Z,20.48
2018-12-01T04:35:48.870Z,20.17
2018-12-01T04:38:23.390Z,20.50
2018-12-01T04:40:57.888Z,17.95
2018-12-01T04:43:32.399Z,20.80
2018-12-01T04:46:06.831Z,23.98
2018-12-01T04:48:41.275Z,50.23
2018-12-01T04:51:15.592Z,68.28
2018-12-01T04:53:49.876Z,44.53
2018-12-01T04:56:24.302Z,30.80
2018-12-01T04:58:58.620Z,16.32
2018-12-01T05:01:33.113Z,18.17
2018-12-01T05:04:07.407Z,19.20
2018-12-01T05:06:41.837Z,17.48
2018-12-01T05:09:16.364Z,15.85
2018-12-01T05:11:50.672Z,18.32
2018-12-01T05:14:25.079Z,20.35
2018-12-01T05:16:59.415Z,18.50
2018-12-01T05:19:33.993Z,22.40
2018-12-01T05:22:08.613Z,17.20
2018-12-01T05:24:43.146Z,15.63
2018-12-01T05:27:17.573Z,17.05
2018-12-01T05:29:52.222Z,17.65
2018-12-01T05:32:26.705Z,15.08
2018-12-01T05:35:01.366Z,22.50
2018-12-01T05:37:35.878Z,26.65
2018-12-01T05:40:11.514Z,18.98
2018-12-01T05:42:46.167Z,16.37
2018-12-01T05:45:23.214Z,14.00
2018-12-01T05:47:57.763Z,21.70
2018-12-01T05:50:32.462Z,35.15
2018-12-01T05:53:06.767Z,43.10
2018-12-01T05:55:41.220Z,41.33
2018-12-01T05:58:15.802Z,27.42
2018-12-01T06:00:50.347Z,11.60
2018-12-01T06:03:24.893Z,17.35
2018-12-01T06:05:59.629Z,14.28
2018-12-01T06:08:34.169Z,12.10
2018-12-01T06:11:08.617Z,13.62
2018-12-01T06:13:43.100Z,15.88
2018-12-01T06:16:17.422Z,16.15
2018-12-01T06:18:51.818Z,20.52
2018-12-01T06:21:26.189Z,19.70
2018-12-01T06:24:00.534Z,10.90
2018-12-01T06:26:34.904Z,10.48
2018-12-01T06:29:09.170Z,10.60
2018-12-01T06:31:43.512Z,14.50
2018-12-01T06:34:17.908Z,10.32
2018-12-01T06:36:52.412Z,16.62
2018-12-01T06:39:26.867Z,10.35
2018-12-01T06:42:01.239Z,10.68
2018-12-01T06:44:35.822Z,9.60
2018-12-01T06:47:10.197Z,10.20
2018-12-01T06:49:44.733Z,17.98
2018-12-01T06:52:19.117Z,15.25
2018-12-01T06:54:53.644Z,21.50
2018-12-01T06:57:28.111Z,40.83
2018-12-01T07:00:02.586Z,42.08
2018-12-01T07:02:37.159Z,36.88
2018-12-01T07:05:12.690Z,23.45
2018-12-01T07:07:47.171Z,15.50
2018-12-01T07:10:22.574Z,16.37
2018-12-01T07:12:59.775Z,18.65
2018-12-01T07:15:36.843Z,13.45
2018-12-01T07:18:22.730Z,12.65
2018-12-01T07:20:57.291Z,17.60
2018-12-01T07:23:31.820Z,17.42
2018-12-01T07:26:06.367Z,15.75
2018-12-01T07:28:40.861Z,14.90
2018-12-01T07:31:15.169Z,11.55
2018-12-01T07:33:49.690Z,8.75
2018-12-01T07:36:24.038Z,11.38
2018-12-01T07:38:58.493Z,11.25
2018-12-01T07:41:33.256Z,8.80
2018-12-01T07:44:07.704Z,9.18
2018-12-01T07:46:42.017Z,7.92
2018-12-01T07:49:16.576Z,10.32
2018-12-01T07:51:51.108Z,43.65
2018-12-01T07:54:25.547Z,68.97
2018-12-01T07:56:59.976Z,68.67
2018-12-01T07:59:34.345Z,43.15
2018-12-01T08:02:08.801Z,11.68
2018-12-01T08:04:43.346Z,9.80
2018-12-01T08:07:17.957Z,46.42
2018-12-01T08:09:57.845Z,18.40
2018-12-01T08:12:32.439Z,83.75
2018-12-01T08:15:09.650Z,228.00
2018-12-01T08:17:44.266Z,222.07
2018-12-01T08:20:18.710Z,55.85
2018-12-01T08:22:53.090Z,54.30
2018-12-01T08:25:27.809Z,26.07
2018-12-01T08:28:02.622Z,15.10
2018-12-01T08:30:37.184Z,32.55
2018-12-01T08:33:11.797Z,22.80
2018-12-01T08:35:46.338Z,17.65
2018-12-01T08:38:20.853Z,24.45
2018-12-01T08:40:55.186Z,19.90
2018-12-01T08:43:29.514Z,19.92
2018-12-01T08:46:03.894Z,21.93
2018-12-01T08:48:38.253Z,20.00
2018-12-01T08:51:12.793Z,37.40
2018-12-01T08:53:47.468Z,48.20
2018-12-01T08:56:21.852Z,64.10
2018-12-01T08:58:56.397Z,40.65
2018-12-01T09:01:30.942Z,13.55
2018-12-01T09:04:05.683Z,21.07
2018-12-01T09:06:40.125Z,21.48
2018-12-01T09:09:14.805Z,12.55
2018-12-01T09:11:49.370Z,9.08
2018-12-01T09:14:23.833Z,8.35
2018-12-01T09:16:58.390Z,13.80
2018-12-01T09:19:32.819Z,10.28
2018-12-01T09:22:07.189Z,8.75
2018-12-01T09:24:41.937Z,9.45
2018-12-01T09:27:16.471Z,9.53
2018-12-01T09:29:50.890Z,8.08
2018-12-01T09:32:25.339Z,7.53
2018-12-01T09:34:59.905Z,6.50
2018-12-01T09:37:34.447Z,7.05
2018-12-01T09:40:10.318Z,6.47
2018-12-01T09:42:44.873Z,6.10
2018-12-01T09:45:20.464Z,9.15
2018-12-01T09:47:55.767Z,6.53
2018-12-01T09:50:30.584Z,13.35
2018-12-01T09:53:05.686Z,53.05
2018-12-01T09:55:40.115Z,106.85
2018-12-01T09:58:14.727Z,33.78
2018-12-01T10:00:50.518Z,20.27
2018-12-01T10:03:24.857Z,5.25
2018-12-01T10:05:59.325Z,5.70
2018-12-01T10:08:33.736Z,3.62
2018-12-01T10:11:08.097Z,6.47
2018-12-01T10:13:42.711Z,2.95
2018-12-01T10:16:17.719Z,1.85
2018-12-01T10:18:56.458Z,2.67
2018-12-01T10:21:26.777Z,1.80
2018-12-01T10:24:01.176Z,8.63
2018-12-01T10:26:35.772Z,2.75
2018-12-01T10:29:10.205Z,3.15
2018-12-01T10:31:44.529Z,5.45
2018-12-01T10:34:18.986Z,5.17
2018-12-01T10:36:53.779Z,3.00
2018-12-01T10:39:28.304Z,2.22
2018-12-01T10:42:03.696Z,3.17
2018-12-01T10:44:37.874Z,1.70
2018-12-01T10:47:12.593Z,6.83
2018-12-01T10:49:47.212Z,0.80
2018-12-01T10:52:21.904Z,3.67
2018-12-01T10:54:56.623Z,2.77
2018-12-01T10:57:31.138Z,3.10
2018-12-01T11:00:09.033Z,3.50
2018-12-01T11:02:48.908Z,5.90
2018-12-01T11:05:23.590Z,9.15
2018-12-01T11:07:58.137Z,2.05
2018-12-01T11:10:32.456Z,2.90
2018-12-01T11:13:06.908Z,3.72
2018-12-01T11:15:41.435Z,4.80
2018-12-01T11:18:15.759Z,37.75
2018-12-01T11:20:50.126Z,6.70
2018-12-01T11:23:24.566Z,4.10
2018-12-01T11:25:59.041Z,14.60
2018-12-01T11:28:33.413Z,24.65
2018-12-01T11:31:07.737Z,30.12
2018-12-01T11:33:42.154Z,65.70
2018-12-01T11:36:16.595Z,14.83
2018-12-01T11:38:51.016Z,4.65
2018-12-01T11:41:25.351Z,1.25
2018-12-01T11:43:59.747Z,7.20
2018-12-01T11:46:34.043Z,2.70
2018-12-01T11:49:09.552Z,2.25
2018-12-01T11:51:43.282Z,3.05
2018-12-01T11:54:18.004Z,3.05
2018-12-01T11:56:52.457Z,1.25
2018-12-01T11:59:26.873Z,4.28
2018-12-01T12:02:01.199Z,1.50
2018-12-01T12:04:35.567Z,3.50
2018-12-01T12:07:21.388Z,2.40
2018-12-01T12:09:55.715Z,1.27
2018-12-01T12:12:30.030Z,13.53
2018-12-01T12:15:06.066Z,5.28
2018-12-01T12:17:41.048Z,7.17
2018-12-01T12:20:15.585Z,2.92
2018-12-01T12:22:49.919Z,4.83
2018-12-01T12:25:24.153Z,10.32
2018-12-01T12:27:58.498Z,22.82
2018-12-01T12:30:32.813Z,31.48
2018-12-01T12:33:07.433Z,28.83
2018-12-01T12:35:41.906Z,5.80
2018-12-01T12:38:16.438Z,6.45
2018-12-01T12:40:50.923Z,4.30
2018-12-01T12:43:25.330Z,3.62
2018-12-01T12:45:59.670Z,8.60
2018-12-01T12:48:33.977Z,5.60
2018-12-01T12:51:08.323Z,0.78
2018-12-01T12:53:42.674Z,3.25
2018-12-01T12:56:17.046Z,2.83
2018-12-01T12:58:51.551Z,0.93
2018-12-01T13:01:26.135Z,2.30
2018-12-01T13:04:00.697Z,0.82
2018-12-01T13:06:35.142Z,1.75
2018-12-01T13:09:09.780Z,2.17
2018-12-01T13:11:44.092Z,4.97
2018-12-01T13:14:18.374Z,3.05
2018-12-01T13:16:52.788Z,3.45
2018-12-01T13:19:27.063Z,1.05
2018-12-01T13:22:01.407Z,4.20
2018-12-01T13:24:35.991Z,0.90
2018-12-01T13:27:10.455Z,2.50
2018-12-01T13:29:44.760Z,3.45
2018-12-01T13:32:19.268Z,9.18
2018-12-01T13:34:53.647Z,2.65
2018-12-01T13:37:28.134Z,3.17
2018-12-01T13:40:02.747Z,14.75
2018-12-01T13:42:37.049Z,18.42
2018-12-01T13:45:12.560Z,34.55
2018-12-01T13:47:49.231Z,32.25
2018-12-01T13:50:23.514Z,13.60
2018-12-01T13:53:00.955Z,4.90
2018-12-01T13:55:35.581Z,5.83
2018-12-01T13:58:10.083Z,7.28
2018-12-01T14:00:44.492Z,4.22
2018-12-01T14:03:18.929Z,5.60
2018-12-01T14:05:55.279Z,4.50
2018-12-01T14:08:29.765Z,4.83
2018-12-01T14:11:04.129Z,5.33
2018-12-01T14:13:38.709Z,5.22
2018-12-01T14:16:13.194Z,6.60
2018-12-01T14:18:47.627Z,13.75
2018-12-01T14:21:21.932Z,7.67
2018-12-01T14:23:57.378Z,7.60
2018-12-01T14:26:32.031Z,7.90
2018-12-01T14:29:06.503Z,11.88
2018-12-01T14:31:41.061Z,9.00
2018-12-01T14:34:15.509Z,11.00
2018-12-01T14:36:49.874Z,4.67
2018-12-01T14:39:24.355Z,5.87
2018-12-01T14:41:58.746Z,4.22
2018-12-01T14:44:33.569Z,5.60
2018-12-01T14:47:07.986Z,2.67
2018-12-01T14:49:42.451Z,6.47
2018-12-01T14:52:16.859Z,2.50
2018-12-01T14:54:51.509Z,4.12
2018-12-01T14:57:25.876Z,12.05
2018-12-01T15:00:00.423Z,15.28
2018-12-01T15:02:34.748Z,7.65
2018-12-01T15:05:09.391Z,37.13
2018-12-01T15:07:43.974Z,49.90
2018-12-01T15:10:19.529Z,30.68
2018-12-01T15:12:53.936Z,23.77
2018-12-01T15:15:28.559Z,7.62
2018-12-01T15:18:03.072Z,8.88
2018-12-01T15:20:37.492Z,7.40
2018-12-01T15:23:12.103Z,11.65
2018-12-01T15:25:46.675Z,13.78
2018-12-01T15:28:21.173Z,16.32
2018-12-01T15:30:55.672Z,7.87
2018-12-01T15:33:30.121Z,12.75
2018-12-01T15:36:04.695Z,9.30
2018-12-01T15:38:39.535Z,12.60
2018-12-01T15:41:14.405Z,6.42
2018-12-01T15:43:49.015Z,4.92
2018-12-01T15:46:23.451Z,12.65
2018-12-01T15:48:57.895Z,13.32
2018-12-01T15:51:32.430Z,7.42
2018-12-01T15:54:06.976Z,6.55
2018-12-01T15:56:41.306Z,7.12
2018-12-01T15:59:15.713Z,5.72
2018-12-01T16:01:50.356Z,9.50
2018-12-01T16:04:24.640Z,8.45
2018-12-01T16:06:59.085Z,25.88
2018-12-01T16:09:33.505Z,535.02
2018-12-01T16:12:07.930Z,170.07
2018-12-01T16:14:42.281Z,206.75
2018-12-01T16:17:16.926Z,197.45
2018-12-01T16:19:51.395Z,157.55
2018-12-01T16:22:25.941Z,137.60
2018-12-01T16:25:00.583Z,174.25
2018-12-01T16:27:35.067Z,160.57
2018-12-01T16:30:18.842Z,162.43
2018-12-01T16:32:54.831Z,89.10
2018-12-01T16:35:29.561Z,126.55
2018-12-01T16:38:04.397Z,95.50
2018-12-01T16:40:47.960Z,93.55
2018-12-01T16:43:22.387Z,71.53
2018-12-01T16:45:56.897Z,25.92
2018-12-01T16:48:31.331Z,15.30
2018-12-01T16:51:05.883Z,14.13
2018-12-01T16:53:40.433Z,19.25
2018-12-01T16:56:15.004Z,16.87
2018-12-01T16:58:49.784Z,14.00
2018-12-01T17:01:24.568Z,19.02
2018-12-01T17:03:59.374Z,21.80
2018-12-01T17:06:33.978Z,20.23
2018-12-01T17:09:08.928Z,16.65
2018-12-01T17:11:43.238Z,24.60
2018-12-01T17:14:17.759Z,20.75
2018-12-01T17:16:52.235Z,13.93
2018-12-01T17:19:26.639Z,8.65
2018-12-01T17:22:01.141Z,47.38
2018-12-01T17:24:35.523Z,108.22
2018-12-01T17:27:09.891Z,87.92
2018-12-01T17:29:44.406Z,59.83
2018-12-01T17:32:18.672Z,22.67
2018-12-01T17:34:53.051Z,30.65
2018-12-01T17:37:27.578Z,42.10
2018-12-01T17:40:02.013Z,51.20
2018-12-01T17:42:36.391Z,21.95
2018-12-01T17:45:11.217Z,11.55
2018-12-01T17:47:45.804Z,14.47
2018-12-01T17:50:20.625Z,17.25
2018-12-01T17:52:56.567Z,42.78
2018-12-01T17:55:31.556Z,76.60
2018-12-01T17:58:08.530Z,137.20
2018-12-01T18:00:43.334Z,61.88
2018-12-01T18:03:18.034Z,70.25
2018-12-01T18:05:52.672Z,78.85
2018-12-01T18:08:27.182Z,50.33
2018-12-01T18:11:01.646Z,39.23
2018-12-01T18:13:36.287Z,39.75
2018-12-01T18:16:10.669Z,37.73
2018-12-01T18:18:45.325Z,39.60
2018-12-01T18:21:19.847Z,35.55
2018-12-01T18:23:54.425Z,38.17
2018-12-01T18:26:28.859Z,47.70
2018-12-01T18:29:03.381Z,89.67
2018-12-01T18:31:37.977Z,58.85
2018-12-01T18:34:14.103Z,61.95
2018-12-01T18:36:48.784Z,45.17
2018-12-01T18:39:23.614Z,50.28
2018-12-01T18:41:57.975Z,31.65
2018-12-01T18:44:32.429Z,38.30
2018-12-01T18:47:06.739Z,26.70
2018-12-01T18:49:41.231Z,23.35
2018-12-01T18:52:15.755Z,25.65
2018-12-01T18:54:50.194Z,28.75
2018-12-01T18:57:24.708Z,21.57
2018-12-01T18:59:59.129Z,15.15
2018-12-01T19:02:33.644Z,17.27
2018-12-01T19:05:08.215Z,22.42
2018-12-01T19:07:42.699Z,48.80
2018-12-01T19:10:18.344Z,83.17
2018-12-01T19:12:52.837Z,78.90
2018-12-01T19:15:27.171Z,42.75
2018-12-01T19:18:01.693Z,55.25
2018-12-01T19:20:36.275Z,46.35
2018-12-01T19:23:12.525Z,49.13
2018-12-01T19:25:48.169Z,44.48
2018-12-01T19:28:22.642Z,33.73
2018-12-01T19:30:57.164Z,39.65
2018-12-01T19:33:31.524Z,35.28
2018-12-01T19:36:05.958Z,33.65
2018-12-01T19:38:40.409Z,41.53
2018-12-01T19:41:15.474Z,44.08
2018-12-01T19:43:49.938Z,37.83
2018-12-01T19:46:24.467Z,42.00
2018-12-01T19:48:59.112Z,39.38
2018-12-01T19:51:33.405Z,33.65
2018-12-01T19:54:07.713Z,35.75
2018-12-01T19:56:42.032Z,41.33
2018-12-01T19:59:16.357Z,31.65
2018-12-01T20:01:50.674Z,42.98
2018-12-01T20:04:25.142Z,22.25
2018-12-01T20:06:59.660Z,16.70
2018-12-01T20:09:33.978Z,20.23
2018-12-01T20:12:09.068Z,95.28
2018-12-01T20:14:43.677Z,69.82
2018-12-01T20:17:18.162Z,45.33
2018-12-01T20:19:52.751Z,59.90
2018-12-01T20:22:26.984Z,64.32
2018-12-01T20:25:01.405Z,43.78
2018-12-01T20:27:35.955Z,42.17
2018-12-01T20:30:13.350Z,34.05
2018-12-01T20:32:47.912Z,34.25
2018-12-01T20:35:29.085Z,90.85
2018-12-01T20:38:08.132Z,133.80
2018-12-01T20:40:42.633Z,69.80
2018-12-01T20:43:17.061Z,42.55
2018-12-01T20:45:51.601Z,39.53
2018-12-01T20:48:26.197Z,32.45
2018-12-01T20:51:00.696Z,38.38
2018-12-01T20:53:35.198Z,34.43
2018-12-01T20:56:13.259Z,40.10
2018-12-01T20:58:47.814Z,41.63
2018-12-01T21:01:22.185Z,47.95
2018-12-01T21:03:56.884Z,49.27
2018-12-01T21:06:31.371Z,47.33
2018-12-01T21:09:08.430Z,49.27
2018-12-01T21:11:42.925Z,43.98
2018-12-01T21:14:17.351Z,36.10
2018-12-01T21:16:51.679Z,47.00
2018-12-01T21:19:26.167Z,44.85
2018-12-01T21:22:00.511Z,54.58
2018-12-01T21:24:34.865Z,53.02
2018-12-01T21:27:09.437Z,44.73
2018-12-01T21:29:44.049Z,47.00
2018-12-01T21:32:18.604Z,39.98
2018-12-01T21:34:53.196Z,48.58
2018-12-01T21:37:27.448Z,46.20
2018-12-01T21:40:01.905Z,44.30
2018-12-01T21:42:36.407Z,42.15
2018-12-01T21:45:12.242Z,38.80
2018-12-01T21:47:46.807Z,96.05
2018-12-01T21:50:22.087Z,68.95
2018-12-01T21:52:56.413Z,78.35
2018-12-01T21:55:30.756Z,59.45
2018-12-01T21:58:05.838Z,54.95
2018-12-01T22:00:42.641Z,32.33
2018-12-01T22:03:18.032Z,33.90
2018-12-01T22:05:54.749Z,40.25
2018-12-01T22:08:29.902Z,45.35
2018-12-01T22:11:04.488Z,67.08
2018-12-01T22:13:39.061Z,48.42
2018-12-01T22:16:13.585Z,33.78
2018-12-01T22:18:48.069Z,35.75
2018-12-01T22:21:22.507Z,27.27
2018-12-01T22:23:56.833Z,27.60
2018-12-01T22:26:31.332Z,30.95
2018-12-01T22:29:06.106Z,21.23
2018-12-01T22:31:40.464Z,24.98
2018-12-01T22:34:14.935Z,28.60
2018-12-01T22:36:49.271Z,28.30
2018-12-01T22:39:23.824Z,31.30
2018-12-01T22:41:58.274Z,29.82
2018-12-01T22:44:32.788Z,37.08
2018-12-01T22:47:07.307Z,39.27
2018-12-01T22:49:41.621Z,45.00
2018-12-01T22:52:16.049Z,32.60
2018-12-01T22:54:50.354Z,21.87
2018-12-01T22:57:24.686Z,40.92
2018-12-01T22:59:59.406Z,51.08
2018-12-01T23:02:33.833Z,29.05
2018-12-01T23:05:08.479Z,27.67
2018-12-01T23:07:43.045Z,33.53
2018-12-01T23:10:17.807Z,82.92
2018-12-01T23:12:52.546Z,81.97
2018-12-01T23:15:32.416Z,50.38
2018-12-01T23:18:01.246Z,36.15
2018-12-01T23:20:35.514Z,30.60
2018-12-01T23:23:09.922Z,32.85
2018-12-01T23:25:44.405Z,37.23
2018-12-01T23:28:18.713Z,33.73
2018-12-01T23:30:55.251Z,36.15
2018-12-01T23:33:30.144Z,51.35
2018-12-01T23:36:04.490Z,47.27
2018-12-01T23:38:38.862Z,40.40
2018-12-01T23:41:13.279Z,31.30
2018-12-01T23:43:47.672Z,36.03
2018-12-01T23:46:22.214Z,39.25
2018-12-01T23:48:56.495Z,29.87
2018-12-01T23:51:30.915Z,27.17
2018-12-01T23:54:05.661Z,22.60
2018-12-01T23:56:40.066Z,28.40
2018-12-01T23:59:14.694Z,25.52
